Time;durP1;ratioP1;P1;durP2;ratioP2;P2;SDS_P1;SDS_P2;PMS_P1;PMS_P2;Temp;Humidity;BMP_temperature;BMP_pressure;BME280_temperature;BME280_humidity;BME280_pressure;Samples;Min_cycle;Max_cycle;Signal;HPM_P1;HPM_P2
2022/03/18 00:00:27;;;;;;;13.18;6.18;;;;;;;2.14;100.00;102310.84;5039932;28;20052;-82
2022/03/18 00:02:53;;;;;;;12.27;5.53;;;;;;;2.09;100.00;102308.91;5040555;28;20421;-82
2022/03/18 00:05:19;;;;;;;13.60;6.60;;;;;;;2.05;100.00;102311.38;5023393;28;20025;-83
2022/03/18 00:07:46;;;;;;;16.45;7.05;;;;;;;1.94;100.00;102318.88;5024654;28;20072;-83
2022/03/18 00:10:17;;;;;;;18.23;7.20;;;;;;;1.79;100.00;102320.06;5042697;28;20474;-83
2022/03/18 00:12:43;;;;;;;14.15;7.45;;;;;;;1.81;100.00;102330.66;5026056;28;20030;-84
2022/03/18 00:15:10;;;;;;;17.75;8.45;;;;;;;1.80;100.00;102332.41;5045520;28;20371;-84
2022/03/18 00:17:36;;;;;;;17.52;7.88;;;;;;;1.83;100.00;102332.50;5029327;28;20025;-84
2022/03/18 00:20:04;;;;;;;17.83;8.20;;;;;;;1.81;100.00;102344.72;5047423;28;20040;-83
2022/03/18 00:22:30;;;;;;;15.48;7.28;;;;;;;1.91;100.00;102334.59;5047049;28;20025;-83
2022/03/18 00:24:56;;;;;;;19.13;7.57;;;;;;;1.87;100.00;102333.56;5029738;28;20099;-83
2022/03/18 00:27:26;;;;;;;14.10;7.15;;;;;;;1.82;100.00;102346.53;5046049;28;20350;-84
2022/03/18 00:29:51;;;;;;;12.52;7.10;;;;;;;1.75;100.00;102340.13;5028684;28;20026;-82
2022/03/18 00:32:16;;;;;;;17.25;8.02;;;;;;;1.70;100.00;102338.16;5046376;28;20033;-84
2022/03/18 00:34:42;;;;;;;16.08;8.07;;;;;;;1.63;100.00;102340.53;5020854;28;20052;-83
2022/03/18 00:37:07;;;;;;;12.65;6.60;;;;;;;1.67;100.00;102334.56;5038836;28;20056;-83
2022/03/18 00:39:33;;;;;;;15.00;7.45;;;;;;;1.69;100.00;102329.34;5039399;28;20026;-83
2022/03/18 00:41:58;;;;;;;15.23;6.65;;;;;;;1.71;100.00;102327.66;5022703;28;20136;-83
2022/03/18 00:44:25;;;;;;;13.30;7.10;;;;;;;1.73;100.00;102339.16;5023239;28;20028;-82
2022/03/18 00:46:52;;;;;;;16.40;6.80;;;;;;;1.73;100.00;102335.63;5024495;28;20029;-83
2022/03/18 00:52:07;;;;;;;12.40;5.80;;;;;;;1.74;100.00;102333.06;5043243;28;20036;-84
2022/03/18 00:54:39;;;;;;;14.18;6.35;;;;;;;1.65;100.00;102338.84;5046620;28;20034;-83
2022/03/18 00:57:06;;;;;;;17.02;6.80;;;;;;;1.71;100.00;102337.31;5029806;28;20124;-83
2022/03/18 00:59:34;;;;;;;14.38;5.50;;;;;;;1.74;100.00;102326.91;5030786;28;20029;-84
2022/03/18 01:02:00;;;;;;;15.45;5.55;;;;;;;1.75;100.00;102339.25;5030688;28;20056;-84
2022/03/18 01:04:29;;;;;;;16.52;6.72;;;;;;;1.71;100.00;102343.47;5048489;28;20386;-84
2022/03/18 01:06:56;;;;;;;18.10;5.85;;;;;;;1.70;100.00;102331.13;5048380;28;20390;-84
2022/03/18 01:09:22;;;;;;;11.80;5.53;;;;;;;1.61;100.00;102342.22;5024869;28;20071;-83
2022/03/18 01:11:50;;;;;;;15.23;5.68;;;;;;;1.59;100.00;102330.72;5037735;28;20036;-83
2022/03/18 01:14:17;;;;;;;14.20;7.03;;;;;;;1.39;100.00;102335.16;5038634;28;20025;-83
2022/03/18 01:16:44;;;;;;;15.70;7.47;;;;;;;1.34;100.00;102332.34;5021973;28;20017;-83
2022/03/18 01:19:10;;;;;;;13.75;7.53;;;;;;;1.20;100.00;102335.31;5040441;28;20075;-83
2022/03/18 01:21:36;;;;;;;20.58;9.70;;;;;;;1.14;100.00;102347.28;5024236;28;20029;-84
2022/03/18 01:24:02;;;;;;;17.85;8.70;;;;;;;1.10;100.00;102355.06;5035057;28;20116;-83
2022/03/18 01:26:28;;;;;;;16.30;9.07;;;;;;;1.10;100.00;102359.41;5017396;28;20026;-83
2022/03/18 01:28:54;;;;;;;19.33;9.23;;;;;;;1.05;100.00;102353.97;5017095;28;20429;-83
2022/03/18 01:31:19;;;;;;;20.17;8.35;;;;;;;1.04;100.00;102359.16;5017269;28;20121;-83
2022/03/18 01:33:45;;;;;;;14.13;7.88;;;;;;;1.11;100.00;102348.03;5035616;28;20502;-83
2022/03/18 01:36:13;;;;;;;13.55;7.60;;;;;;;1.08;100.00;102350.56;5035451;28;20032;-82
2022/03/18 01:38:39;;;;;;;17.48;8.25;;;;;;;1.14;100.00;102358.72;5017565;28;20104;-83
2022/03/18 01:41:07;;;;;;;16.48;8.38;;;;;;;1.09;100.00;102354.97;5036165;28;20082;-83
2022/03/18 01:43:47;;;;;;;14.10;7.30;;;;;;;1.15;100.00;102356.97;5035681;28;20078;-83
2022/03/18 01:46:21;;;;;;;15.18;7.47;;;;;;;1.13;100.00;102363.91;5018591;28;20026;-83
2022/03/18 01:48:50;;;;;;;17.48;7.65;;;;;;;0.88;100.00;102369.91;5018439;28;20112;-83
2022/03/18 01:51:16;;;;;;;22.17;7.85;;;;;;;0.90;100.00;102362.09;5035888;28;20029;-83
2022/03/18 01:53:43;;;;;;;15.80;7.90;;;;;;;0.86;100.00;102365.41;5036474;28;20028;-83
2022/03/18 01:56:12;;;;;;;20.38;7.85;;;;;;;0.79;100.00;102377.41;5019400;28;20032;-83
2022/03/18 01:58:46;;;;;;;15.35;7.45;;;;;;;0.82;100.00;102384.53;5036309;28;20108;-84
2022/03/18 02:01:12;;;;;;;15.70;7.90;;;;;;;0.74;100.00;102382.47;5018195;28;20017;-83
2022/03/18 02:03:37;;;;;;;17.35;7.60;;;;;;;0.83;100.00;102381.03;5036132;28;20423;-83
2022/03/18 02:06:09;;;;;;;14.90;7.03;;;;;;;0.88;100.00;102379.53;5036013;28;20037;-83
2022/03/18 02:08:35;;;;;;;16.70;7.30;;;;;;;0.87;100.00;102385.63;5017204;28;20028;-84
2022/03/18 02:11:00;;;;;;;12.57;7.38;;;;;;;0.80;100.00;102386.19;5017535;28;20033;-83
2022/03/18 02:13:38;;;;;;;15.85;7.75;;;;;;;0.78;100.00;102384.38;5018161;28;20021;-83
2022/03/18 02:16:04;;;;;;;16.60;6.78;;;;;;;0.58;100.00;102396.63;5018969;28;20040;-84
2022/03/18 02:18:29;;;;;;;18.80;8.32;;;;;;;0.44;100.00;102398.63;5036248;28;20030;-83
2022/03/18 02:20:55;;;;;;;13.73;7.13;;;;;;;0.51;100.00;102405.06;5035033;28;20040;-83
2022/03/18 02:23:30;;;;;;;16.63;7.85;;;;;;;0.59;100.00;102408.06;5036199;28;20489;-83
2022/03/18 02:25:58;;;;;;;17.60;7.88;;;;;;;0.57;100.00;102410.59;5035883;28;20091;-83
2022/03/18 02:28:32;;;;;;;17.85;7.63;;;;;;;0.59;100.00;102413.31;5018903;28;20497;-83
2022/03/18 02:30:58;;;;;;;12.70;6.88;;;;;;;0.62;100.00;102418.72;5031898;22;20075;-75
2022/03/18 02:33:23;;;;;;;14.98;7.13;;;;;;;0.59;100.00;102415.94;5013529;28;20042;-75
2022/03/18 02:35:53;;;;;;;16.67;6.97;;;;;;;0.53;100.00;102417.47;5013746;28;20036;-75
2022/03/18 02:38:18;;;;;;;15.00;7.55;;;;;;;0.50;100.00;102422.56;5013520;28;20024;-75
2022/03/18 02:40:44;;;;;;;13.50;7.28;;;;;;;0.54;100.00;102421.88;5013992;28;20022;-76
2022/03/18 02:43:09;;;;;;;16.17;8.10;;;;;;;0.52;100.00;102428.78;5012089;28;20021;-75
2022/03/18 02:45:34;;;;;;;17.42;8.13;;;;;;;0.44;100.00;102435.41;5013728;28;20053;-76
2022/03/18 02:48:00;;;;;;;17.27;7.90;;;;;;;0.37;100.00;102422.81;5013287;28;20029;-75
2022/03/18 02:50:25;;;;;;;17.13;7.43;;;;;;;0.26;100.00;102430.22;5013393;28;20030;-75
2022/03/18 02:52:50;;;;;;;16.45;7.63;;;;;;;0.15;100.00;102437.56;4995637;28;20025;-75
2022/03/18 02:55:17;;;;;;;16.15;8.30;;;;;;;0.14;100.00;102436.66;5013490;28;20026;-75
2022/03/18 02:57:42;;;;;;;13.70;7.75;;;;;;;0.16;100.00;102436.72;5013328;28;20102;-75
2022/03/18 03:00:08;;;;;;;13.35;7.07;;;;;;;0.29;100.00;102448.72;5013299;28;20112;-75
2022/03/18 03:02:34;;;;;;;12.57;6.63;;;;;;;0.47;100.00;102455.69;4995647;28;20076;-75
2022/03/18 03:08:01;;;;;;;12.43;7.15;;;;;;;0.49;100.00;102469.84;5013324;28;20036;-75
2022/03/18 03:10:31;;;;;;;14.57;7.35;;;;;;;0.39;100.00;102468.47;5013531;28;20034;-75
2022/03/18 03:12:58;;;;;;;13.50;7.60;;;;;;;0.27;100.00;102469.69;5015875;28;20026;-75
2022/03/18 03:15:23;;;;;;;13.00;6.43;;;;;;;0.22;100.00;102469.47;5017193;28;20052;-75
2022/03/18 03:17:49;;;;;;;11.38;6.47;;;;;;;0.12;100.00;102474.22;4999520;28;20391;-75
2022/03/18 03:20:15;;;;;;;17.00;7.13;;;;;;;0.12;100.00;102475.13;5017080;28;20403;-75
2022/03/18 03:22:40;;;;;;;18.98;6.82;;;;;;;0.23;100.00;102473.03;5017270;28;20391;-75
2022/03/18 03:25:06;;;;;;;14.75;6.97;;;;;;;0.17;100.00;102476.25;5017182;28;20157;-75
2022/03/18 03:27:31;;;;;;;14.18;6.85;;;;;;;0.03;100.00;102480.81;5015581;28;20418;-75
2022/03/18 03:29:59;;;;;;;16.83;7.28;;;;;;;0.04;100.00;102480.00;5015623;28;20491;-75
2022/03/18 03:32:24;;;;;;;18.67;7.90;;;;;;;-0.04;100.00;102478.69;5016678;28;20053;-75
2022/03/18 03:34:49;;;;;;;16.13;7.72;;;;;;;-0.04;100.00;102489.22;5016950;28;20475;-75
2022/03/18 03:37:14;;;;;;;15.10;7.20;;;;;;;-0.06;100.00;102477.72;5016740;28;20061;-76
2022/03/18 03:39:40;;;;;;;16.67;7.25;;;;;;;0.02;100.00;102479.03;5016974;28;20063;-75
2022/03/18 03:42:05;;;;;;;17.25;6.97;;;;;;;0.01;100.00;102486.81;5016843;28;20045;-75
2022/03/18 03:44:30;;;;;;;24.73;8.73;;;;;;;0.02;100.00;102484.28;5015272;28;20028;-75
2022/03/18 03:46:56;;;;;;;20.30;8.15;;;;;;;-0.03;100.00;102488.41;5016597;28;20112;-75
2022/03/18 03:49:21;;;;;;;15.18;7.07;;;;;;;-0.09;100.00;102485.44;5016433;28;20030;-75
2022/03/18 03:51:46;;;;;;;15.68;7.25;;;;;;;-0.15;100.00;102481.69;4998864;28;20028;-75
2022/03/18 03:54:11;;;;;;;19.00;7.30;;;;;;;-0.20;100.00;102488.44;5016367;28;20021;-75
2022/03/18 03:56:37;;;;;;;19.52;8.25;;;;;;;-0.22;100.00;102487.47;5016339;28;20108;-74
2022/03/18 03:59:02;;;;;;;14.38;7.15;;;;;;;-0.23;100.00;102483.94;5016333;28;20025;-75
2022/03/18 04:01:27;;;;;;;14.05;7.65;;;;;;;-0.20;100.00;102496.31;5016284;28;20513;-75
2022/03/18 04:03:53;;;;;;;16.05;7.05;;;;;;;-0.13;100.00;102493.16;5014976;28;20037;-75
2022/03/18 04:06:19;;;;;;;11.40;7.03;;;;;;;-0.12;100.00;102500.25;4998650;28;20030;-75
2022/03/18 04:08:44;;;;;;;13.70;7.07;;;;;;;-0.12;100.00;102502.88;5014816;28;20430;-75
2022/03/18 04:11:09;;;;;;;14.10;7.35;;;;;;;-0.03;100.00;102506.78;4998682;28;20098;-75
2022/03/18 04:13:34;;;;;;;20.05;7.40;;;;;;;-0.35;100.00;102518.34;5015946;28;20394;-75
2022/03/18 04:16:00;;;;;;;15.32;6.80;;;;;;;-0.30;100.00;102512.44;5016031;28;20041;-75
2022/03/18 04:18:25;;;;;;;14.85;7.63;;;;;;;-0.53;100.00;102517.38;4998378;28;20076;-75
2022/03/18 04:20:50;;;;;;;15.45;7.30;;;;;;;-0.79;100.00;102525.69;5016221;28;20030;-75
2022/03/18 04:23:16;;;;;;;14.13;7.28;;;;;;;-0.85;100.00;102523.63;5015130;28;20163;-76
2022/03/18 04:25:41;;;;;;;18.58;7.50;;;;;;;-0.85;100.00;102534.13;5014555;28;20030;-75
2022/03/18 04:28:06;;;;;;;14.35;7.25;;;;;;;-0.86;100.00;102534.06;5015724;28;20029;-75
2022/03/18 04:30:31;;;;;;;12.27;6.50;;;;;;;-0.86;100.00;102534.97;5016005;28;20410;-75
2022/03/18 04:32:57;;;;;;;15.73;6.72;;;;;;;-0.91;100.00;102531.19;5015471;28;20058;-75
2022/03/18 04:35:23;;;;;;;15.75;7.40;;;;;;;-0.91;100.00;102549.56;5015573;28;20160;-76
2022/03/18 04:37:49;;;;;;;13.43;7.00;;;;;;;-1.02;100.00;102547.25;5015607;28;20030;-76
2022/03/18 04:40:14;;;;;;;14.43;7.22;;;;;;;-1.04;100.00;102540.09;4997948;28;20026;-76
2022/03/18 04:42:41;;;;;;;15.93;7.03;;;;;;;-1.08;100.00;102543.41;5014728;28;20025;-76
2022/03/18 04:45:07;;;;;;;15.23;6.95;;;;;;;-1.04;100.00;102538.41;5014180;28;20073;-75
2022/03/18 04:47:33;;;;;;;13.15;6.70;;;;;;;-1.08;100.00;102539.03;5014124;28;20026;-75
2022/03/18 04:50:00;;;;;;;14.88;6.65;;;;;;;-1.12;100.00;102534.44;5014145;28;20037;-75
2022/03/18 04:52:27;;;;;;;17.13;7.68;;;;;;;-1.16;100.00;102542.97;5015522;28;20571;-75
2022/03/18 04:54:52;;;;;;;16.95;8.15;;;;;;;-1.14;100.00;102547.47;5015143;28;20030;-76
2022/03/18 04:57:20;;;;;;;18.67;7.45;;;;;;;-1.11;100.00;102551.09;5015253;28;20037;-76
2022/03/18 04:59:47;;;;;;;19.42;8.82;;;;;;;-1.19;100.00;102558.53;5015231;28;20487;-76
2022/03/18 05:02:14;;;;;;;16.48;8.40;;;;;;;-1.19;100.00;102561.16;5013872;28;20499;-76
2022/03/18 05:04:41;;;;;;;13.95;8.32;;;;;;;-1.18;100.00;102557.69;5015049;28;20578;-76
2022/03/18 05:07:07;;;;;;;17.60;8.27;;;;;;;-1.14;100.00;102564.94;5015161;28;20025;-75
2022/03/18 05:09:32;;;;;;;18.75;8.85;;;;;;;-1.17;100.00;102578.78;5014930;28;20380;-75
2022/03/18 05:11:57;;;;;;;16.45;9.07;;;;;;;-1.25;100.00;102578.34;5014914;28;20026;-75
2022/03/18 05:14:23;;;;;;;22.63;9.88;;;;;;;-1.24;100.00;102588.00;5014808;28;20021;-75
2022/03/18 05:16:49;;;;;;;16.20;8.68;;;;;;;-1.19;100.00;102590.00;5014816;28;20029;-75
2022/03/18 05:19:15;;;;;;;22.02;9.30;;;;;;;-1.29;100.00;102593.81;5015122;28;20021;-75
2022/03/18 05:21:40;;;;;;;18.23;8.45;;;;;;;-1.35;100.00;102595.28;5014788;28;20071;-75
2022/03/18 05:24:06;;;;;;;17.10;8.85;;;;;;;-1.34;100.00;102590.94;5013462;28;20108;-75
2022/03/18 05:26:33;;;;;;;15.95;8.88;;;;;;;-1.39;100.00;102603.75;4997237;28;20026;-75
2022/03/18 05:28:58;;;;;;;16.45;9.02;;;;;;;-1.38;100.00;102599.44;5015380;28;20025;-75
2022/03/18 05:31:25;;;;;;;17.77;8.98;;;;;;;-1.42;100.00;102605.31;5014353;28;20049;-76
2022/03/18 05:33:51;;;;;;;18.67;9.32;;;;;;;-1.41;100.00;102607.09;5014281;28;20018;-76
2022/03/18 05:36:16;;;;;;;19.48;9.90;;;;;;;-1.43;100.00;102607.03;5012455;28;20029;-76
2022/03/18 05:38:41;;;;;;;21.05;10.23;;;;;;;-1.40;100.00;102616.78;5014562;28;20028;-76
2022/03/18 05:41:07;;;;;;;23.48;10.50;;;;;;;-1.43;100.00;102616.59;5014366;28;20114;-75
2022/03/18 05:43:33;;;;;;;17.45;9.43;;;;;;;-1.43;100.00;102627.09;5014507;28;20026;-75
2022/03/18 05:45:58;;;;;;;18.92;10.25;;;;;;;-1.44;100.00;102638.41;5014337;28;20045;-75
2022/03/18 05:48:23;;;;;;;16.33;9.18;;;;;;;-1.39;100.00;102650.06;5014154;28;20107;-75
2022/03/18 05:50:51;;;;;;;22.25;9.95;;;;;;;-1.41;100.00;102655.19;5014236;28;20104;-75
2022/03/18 05:53:17;;;;;;;24.60;10.60;;;;;;;-1.51;100.00;102652.84;5012972;28;20064;-74
2022/03/18 05:58:27;;;;;;;20.48;10.80;;;;;;;-1.42;100.00;102655.13;5014277;28;20056;-75
2022/03/18 06:00:53;;;;;;;21.55;10.70;;;;;;;-1.47;100.00;102658.34;5014367;28;20113;-75
2022/03/18 06:03:18;;;;;;;23.42;10.60;;;;;;;-1.43;100.00;102664.69;5013964;28;20101;-75
2022/03/18 06:05:44;;;;;;;25.60;11.55;;;;;;;-1.39;100.00;102668.41;5014033;28;20395;-76
2022/03/18 06:13:37;;;;;;;;;;;;;;;-1.04;100.00;102674.78;5014232;28;20530;-75
2022/03/18 06:16:03;;;;;;;22.63;10.93;;;;;;;-1.04;100.00;102673.88;4996308;28;19909;-75
2022/03/18 06:18:28;;;;;;;19.33;11.40;;;;;;;-0.98;100.00;102682.06;5014112;28;20309;-75
2022/03/18 06:20:55;;;;;;;20.10;11.23;;;;;;;-0.91;100.00;102691.22;5013737;28;20030;-75
2022/03/18 06:23:21;;;;;;;22.15;11.93;;;;;;;-0.83;100.00;102695.19;5013780;28;20028;-75
2022/03/18 06:25:46;;;;;;;24.75;13.73;;;;;;;-0.82;100.00;102707.47;5013514;28;20061;-75
2022/03/18 06:28:12;;;;;;;23.80;13.57;;;;;;;-0.84;100.00;102713.44;5013443;28;20018;-75
2022/03/18 06:30:37;;;;;;;26.45;12.32;;;;;;;-0.81;100.00;102719.78;5013607;28;20033;-75
2022/03/18 06:33:02;;;;;;;24.10;12.52;;;;;;;-0.77;100.00;102714.72;5013455;28;20040;-74
2022/03/18 06:35:27;;;;;;;26.17;12.52;;;;;;;-0.71;100.00;102715.03;5013488;28;20426;-75
2022/03/18 06:37:54;;;;;;;23.25;12.90;;;;;;;-0.65;100.00;102710.13;5013535;28;20033;-75
2022/03/18 06:40:20;;;;;;;28.33;13.75;;;;;;;-0.54;100.00;102707.22;5013495;28;20486;-75
2022/03/18 06:42:45;;;;;;;24.95;12.25;;;;;;;-0.46;100.00;102711.13;5013416;28;20116;-75
2022/03/18 06:45:10;;;;;;;25.10;13.55;;;;;;;-0.35;100.00;102712.66;5013767;28;20025;-75
2022/03/18 06:47:35;;;;;;;24.13;13.82;;;;;;;-0.24;100.00;102717.59;5013155;28;20026;-75
2022/03/18 06:50:01;;;;;;;21.65;13.20;;;;;;;-0.16;100.00;102726.78;5013316;28;20025;-75
2022/03/18 06:52:26;;;;;;;23.75;12.38;;;;;;;-0.12;100.00;102728.75;5013341;28;20026;-76
2022/03/18 06:54:51;;;;;;;21.92;13.38;;;;;;;-0.06;100.00;102722.94;5013337;28;20510;-75
2022/03/18 06:57:17;;;;;;;23.27;13.05;;;;;;;0.08;100.00;102733.25;5013354;28;20364;-75
2022/03/18 06:59:42;;;;;;;21.85;13.20;;;;;;;0.12;100.00;102735.25;4995786;28;20022;-75
2022/03/18 07:02:07;;;;;;;26.70;14.45;;;;;;;0.15;100.00;102738.03;5013238;28;20025;-75
2022/03/18 07:04:32;;;;;;;23.85;13.48;;;;;;;0.20;100.00;102738.28;5013229;28;20395;-75
2022/03/18 07:06:58;;;;;;;23.30;14.02;;;;;;;0.24;100.00;102742.84;5013514;28;20223;-75
2022/03/18 07:09:23;;;;;;;21.73;12.90;;;;;;;0.33;100.00;102737.19;5013144;28;20022;-75
2022/03/18 07:11:48;;;;;;;23.85;14.93;;;;;;;0.44;100.00;102736.00;5013173;28;20034;-75
2022/03/18 07:14:14;;;;;;;24.42;15.98;;;;;;;0.54;100.00;102732.13;5013138;28;20395;-75
2022/03/18 07:19:23;;;;;;;24.60;15.25;;;;;;;0.63;100.00;102733.44;5013469;28;20029;-75
2022/03/18 07:21:48;;;;;;;30.88;14.07;;;;;;;0.70;100.00;102732.91;4995480;28;20041;-75
2022/03/18 07:24:13;;;;;;;26.00;14.88;;;;;;;0.75;100.00;102725.25;5013255;28;20033;-75
2022/03/18 07:26:39;;;;;;;23.15;13.88;;;;;;;0.78;100.00;102743.81;5013097;28;20036;-75
2022/03/18 07:29:05;;;;;;;24.30;14.30;;;;;;;0.80;100.00;102743.91;4995404;28;20014;-75
2022/03/18 07:31:31;;;;;;;24.33;14.93;;;;;;;0.88;100.00;102732.03;5012894;28;20034;-75
2022/03/18 07:33:56;;;;;;;22.90;14.55;;;;;;;1.00;100.00;102737.94;5013050;28;20034;-75
2022/03/18 07:36:21;;;;;;;29.85;16.20;;;;;;;1.14;100.00;102734.16;5012954;28;20083;-75
2022/03/18 07:38:46;;;;;;;24.30;16.13;;;;;;;1.21;100.00;102728.38;5012901;28;20029;-75
2022/03/18 07:41:12;;;;;;;33.03;16.27;;;;;;;1.34;100.00;102732.50;5013194;28;20065;-75
2022/03/18 07:43:37;;;;;;;27.48;16.80;;;;;;;1.41;100.00;102733.69;5012847;28;20470;-75
2022/03/18 07:46:02;;;;;;;30.95;17.83;;;;;;;1.45;100.00;102736.53;5013141;28;20025;-75
2022/03/18 07:48:28;;;;;;;25.73;15.93;;;;;;;1.53;100.00;102738.63;4995300;28;20172;-75
2022/03/18 07:50:54;;;;;;;32.33;19.23;;;;;;;1.54;100.00;102745.72;5012813;28;20030;-75
2022/03/18 07:53:20;;;;;;;26.77;17.60;;;;;;;1.61;100.00;102746.91;5011510;28;20486;-75
2022/03/18 07:55:45;;;;;;;26.13;15.05;;;;;;;1.69;100.00;102752.53;5012784;28;20034;-75
2022/03/18 07:58:10;;;;;;;23.23;13.15;;;;;;;1.45;100.00;102752.34;5013599;28;20022;-75
2022/03/18 08:00:36;;;;;;;22.58;12.93;;;;;;;1.32;100.00;102755.19;4998778;28;20122;-75
2022/03/18 08:03:02;;;;;;;18.98;12.43;;;;;;;1.14;100.00;102760.47;5016399;28;20041;-75
2022/03/18 08:05:28;;;;;;;21.05;13.80;;;;;;;1.02;100.00;102763.41;5014936;28;20535;-75
2022/03/18 08:07:53;;;;;;;26.90;14.48;;;;;;;1.07;100.00;102764.53;5016119;28;20105;-75
2022/03/18 08:10:19;;;;;;;26.63;14.13;;;;;;;1.08;100.00;102772.50;5016145;28;20103;-75
2022/03/18 08:12:46;;;;;;;31.98;15.95;;;;;;;1.18;100.00;102767.69;5016201;28;20068;-75
2022/03/18 08:15:13;;;;;;;25.98;15.30;;;;;;;1.28;100.00;102771.69;5015979;28;20109;-75
2022/03/18 08:17:39;;;;;;;28.40;16.95;;;;;;;1.42;100.00;102778.50;5016030;28;20104;-75
2022/03/18 08:20:09;;;;;;;36.17;17.45;;;;;;;1.56;100.00;102775.66;5016188;28;20029;-75
2022/03/18 08:22:36;;;;;;;29.25;16.33;;;;;;;1.70;100.00;102783.31;5015825;28;20022;-75
2022/03/18 08:25:05;;;;;;;30.52;17.48;;;;;;;1.80;100.00;102782.94;5014648;28;20022;-75
2022/03/18 08:27:32;;;;;;;36.45;18.00;;;;;;;1.89;100.00;102787.72;5015909;28;20030;-75
2022/03/18 08:29:59;;;;;;;28.00;17.25;;;;;;;1.97;100.00;102783.69;5015727;28;20091;-75
2022/03/18 08:32:26;;;;;;;31.33;17.98;;;;;;;2.17;100.00;102790.72;5074235;22;20048;-81
2022/03/18 08:34:51;;;;;;;35.90;17.98;;;;;;;2.25;100.00;102788.41;5064112;28;20021;-80
2022/03/18 08:37:56;;;;;;;26.20;17.27;;;;;;;2.35;100.00;102785.38;5047441;28;20025;-82
2022/03/18 08:40:03;;;;;;;34.63;20.30;;;;;;;2.67;100.00;102798.19;5065033;28;20029;-82
2022/03/18 08:42:30;;;;;;;35.40;20.35;;;;;;;2.78;100.00;102802.19;5048659;28;20024;-81
2022/03/18 08:44:59;;;;;;;33.55;18.85;;;;;;;2.93;100.00;102808.97;5048855;28;20036;-82
2022/03/18 08:47:25;;;;;;;28.15;19.67;;;;;;;3.06;100.00;102812.13;5048608;28;20028;-82
2022/03/18 08:49:50;;;;;;;35.35;18.58;;;;;;;3.21;100.00;102818.06;5048623;28;20017;-81
2022/03/18 08:52:16;;;;;;;29.88;17.50;;;;;;;3.33;100.00;102819.38;5065846;28;20397;-82
2022/03/18 08:54:41;;;;;;;31.05;18.63;;;;;;;3.51;100.00;102831.53;5065854;28;20021;-82
2022/03/18 08:57:07;;;;;;;28.85;18.35;;;;;;;3.61;100.00;102832.84;5058457;28;20100;-80
2022/03/18 08:59:32;;;;;;;36.83;16.75;;;;;;;3.58;100.00;102834.50;5059232;28;20365;-81
2022/03/18 09:01:57;;;;;;;28.33;17.50;;;;;;;3.77;100.00;102842.25;5060593;28;20151;-81
2022/03/18 09:04:24;;;;;;;24.73;16.35;;;;;;;3.88;100.00;102846.25;5042750;28;20497;-81
2022/03/18 09:06:49;;;;;;;27.52;15.68;;;;;;;3.93;100.00;102850.81;5061283;28;20032;-81
2022/03/18 09:09:14;;;;;;;27.80;14.18;;;;;;;4.02;100.00;102856.47;5045400;28;20021;-81
2022/03/18 09:11:41;;;;;;;25.27;14.40;;;;;;;4.27;100.00;102856.50;5046749;28;20025;-82
2022/03/18 09:14:07;;;;;;;23.15;13.85;;;;;;;4.44;100.00;102865.97;5069001;28;20032;-82
2022/03/18 09:16:36;;;;;;;26.23;13.82;;;;;;;4.50;100.00;102865.31;5069039;28;20394;-82
2022/03/18 09:19:02;;;;;;;19.25;13.25;;;;;;;4.89;100.00;102873.75;5050866;28;20017;-82
2022/03/18 09:21:27;;;;;;;21.95;14.25;;;;;;;4.97;100.00;102882.88;5050886;28;20080;-82
2022/03/18 09:23:52;;;;;;;23.85;13.85;;;;;;;5.08;100.00;102869.06;5050036;28;20048;-81
2022/03/18 09:26:18;;;;;;;23.63;12.95;;;;;;;5.43;100.00;102871.13;5050982;28;20028;-82
2022/03/18 09:28:43;;;;;;;21.83;11.38;;;;;;;5.69;100.00;102872.00;5067978;28;20079;-82
2022/03/18 09:31:08;;;;;;;19.35;11.30;;;;;;;5.84;100.00;102865.38;5044891;28;20536;-82
2022/03/18 09:33:35;;;;;;;20.80;11.75;;;;;;;5.88;100.00;102869.00;5057563;28;20078;-80
2022/03/18 09:36:00;;;;;;;19.83;11.48;;;;;;;6.21;100.00;102883.31;5059064;28;20091;-81
2022/03/18 09:38:25;;;;;;;20.90;11.77;;;;;;;6.47;100.00;102885.81;5060703;28;20021;-82
2022/03/18 09:40:51;;;;;;;18.05;9.23;;;;;;;6.56;100.00;102879.91;5042770;28;20082;-81
2022/03/18 09:43:17;;;;;;;20.58;9.48;;;;;;;6.93;100.00;102891.53;5043363;28;20512;-82
2022/03/18 09:45:44;;;;;;;18.27;9.50;;;;;;;6.81;99.54;102902.75;5044437;28;20116;-81
2022/03/18 09:48:10;;;;;;;22.92;10.45;;;;;;;7.33;100.00;102904.09;5062929;28;20070;-82
2022/03/18 09:50:37;;;;;;;22.15;10.18;;;;;;;6.88;98.94;102901.13;5045322;28;20029;-82
2022/03/18 09:53:04;;;;;;;17.42;10.07;;;;;;;7.01;99.11;102899.72;5063681;28;20036;-82
2022/03/18 09:55:30;;;;;;;17.30;9.40;;;;;;;7.16;99.86;102909.00;5064324;28;20470;-83
2022/03/18 09:57:56;;;;;;;14.48;9.23;;;;;;;7.45;100.00;102914.16;5046710;28;20029;-82
2022/03/18 10:00:21;;;;;;;12.15;7.55;;;;;;;7.42;94.92;102915.84;5065004;28;20031;-82
2022/03/18 10:03:06;;;;;;;18.33;6.72;;;;;;;8.44;92.93;102915.53;5064954;28;20029;-82
2022/03/18 10:05:32;;;;;;;11.93;6.72;;;;;;;8.74;88.89;102917.03;5046386;28;20017;-83
2022/03/18 10:07:58;;;;;;;11.63;6.32;;;;;;;8.94;88.36;102920.09;5056266;28;20032;-81
2022/03/18 10:10:24;;;;;;;12.27;5.53;;;;;;;9.44;84.86;102912.13;5039151;28;20029;-81
2022/03/18 10:12:51;;;;;;;12.10;5.57;;;;;;;9.80;85.02;102925.13;5040640;28;20401;-81
2022/03/18 10:15:23;;;;;;;12.85;4.95;;;;;;;9.32;76.57;102933.22;5041714;28;20028;-82
2022/03/18 10:17:51;;;;;;;13.80;5.03;;;;;;;9.45;76.94;102924.59;5061105;28;20027;-82
2022/03/18 10:20:24;;;;;;;7.85;5.30;;;;;;;9.46;77.31;102926.38;5060912;28;20025;-82
2022/03/18 10:22:51;;;;;;;12.02;5.93;;;;;;;9.86;82.21;102930.56;5062209;28;20025;-82
2022/03/18 10:25:56;;;;;;;10.88;5.03;;;;;;;9.86;74.99;102938.59;5062097;28;20047;-82
2022/03/18 10:28:36;;;;;;;11.45;5.18;;;;;;;9.48;80.31;102934.41;4984861;28;20054;-82
2022/03/18 10:31:20;;;;;;;8.10;4.18;;;;;;;9.82;74.00;102931.38;5000757;28;20041;-82
2022/03/18 10:37:04;;;;;;;13.23;4.78;;;;;;;10.02;76.61;102937.06;5063736;28;20051;-82
2022/03/18 10:39:28;;;;;;;12.20;4.50;;;;;;;10.07;72.98;102929.09;5059482;28;20025;-82
2022/03/18 10:41:55;;;;;;;11.98;4.07;;;;;;;9.77;73.26;102933.06;5044042;28;20017;-81
2022/03/18 10:44:21;;;;;;;9.57;4.38;;;;;;;10.25;73.21;102932.91;5056421;28;20473;-82
2022/03/18 10:46:48;;;;;;;10.05;4.78;;;;;;;11.02;72.56;102937.47;5039700;28;20493;-82
2022/03/18 10:49:14;;;;;;;7.47;3.90;;;;;;;10.53;69.88;102936.00;5040932;28;20029;-82
2022/03/18 10:51:39;;;;;;;10.20;3.72;;;;;;;11.04;67.78;102930.34;5043611;28;20035;-82
2022/03/18 10:54:05;;;;;;;11.10;4.68;;;;;;;11.33;70.87;102938.63;5043486;28;20036;-82
2022/03/18 10:56:51;;;;;;;9.68;3.40;;;;;;;11.33;70.15;102934.19;5063253;28;20021;-82
2022/03/18 10:59:17;;;;;;;6.93;3.20;;;;;;;11.57;63.31;102947.78;5046681;28;20028;-82
2022/03/18 11:01:46;;;;;;;8.73;3.33;;;;;;;11.77;62.79;102937.25;5062976;28;20113;-82
2022/03/18 11:04:13;;;;;;;11.02;3.58;;;;;;;12.09;63.26;102938.31;5043881;28;20035;-83
2022/03/18 11:06:39;;;;;;;10.43;4.28;;;;;;;11.62;64.28;102943.38;5044543;28;20055;-83
2022/03/18 11:09:04;;;;;;;8.43;3.65;;;;;;;12.23;63.03;102945.59;5044208;28;20025;-82
2022/03/18 11:11:31;;;;;;;10.65;3.38;;;;;;;11.93;61.07;102942.69;5045060;28;20028;-83
2022/03/18 11:14:00;;;;;;;6.93;3.22;;;;;;;11.76;61.83;102942.56;5045770;28;20086;-83
2022/03/18 11:16:31;;;;;;;9.70;3.35;;;;;;;12.62;66.86;102944.00;5049065;28;20028;-83
2022/03/18 11:18:58;;;;;;;8.95;3.40;;;;;;;13.04;62.85;102945.03;5042348;28;20128;-82
2022/03/18 11:21:35;;;;;;;10.70;3.38;;;;;;;12.25;61.44;102949.16;5045064;28;20083;-82
2022/03/18 11:24:03;;;;;;;8.63;3.08;;;;;;;12.08;62.79;102949.94;5046698;28;20031;-83
2022/03/18 11:26:29;;;;;;;9.57;2.97;;;;;;;12.08;62.25;102936.56;5064968;28;20027;-83
2022/03/18 11:29:16;;;;;;;6.35;2.78;;;;;;;12.31;62.59;102934.91;5046815;28;20036;-83
2022/03/18 11:31:42;;;;;;;6.38;3.00;;;;;;;12.73;61.50;102930.63;5064745;28;20036;-82